< < Back
Terminal Aerodrome Forecast


Current Version              Previous Versions:   1  2  3  4  5  6  7  8  9  

Terminal Aerodrome Forecast

439
FTUS42 KCHS 011100
TAFSAV
TAF
KSAV 011135Z 0112/0212 04004KT P6SM FEW250
     FM011800 11006KT P6SM SCT080
     FM020100 00000KT P6SM SCT250=

Latest METAR

615
SAUS80 KWBC 011600 RRI
MTRSAV
METAR KSAV 011553Z 03003KT 10SM FEW020 SCT250 28/18 A3000 RMK AO2 SLP159
T02830178


USA.gov is the U.S. government's official web portal to all federal, state and local government web resources and services.